createdAt,value
2017-11-27T00:00:58.847Z,93.41
2017-11-27T00:03:26.568Z,93.48
2017-11-27T00:05:54.191Z,93.52
2017-11-27T00:08:21.868Z,93.50
2017-11-27T00:10:49.538Z,93.45
2017-11-27T00:13:17.233Z,93.51
2017-11-27T00:15:46.232Z,93.36
2017-11-27T00:18:13.936Z,93.29
2017-11-27T00:20:41.577Z,93.04
2017-11-27T00:23:10.124Z,92.95
2017-11-27T00:25:37.817Z,93.00
2017-11-27T00:28:05.552Z,92.91
2017-11-27T00:30:33.233Z,92.59
2017-11-27T00:33:01.025Z,92.63
2017-11-27T00:35:28.644Z,92.64
2017-11-27T00:37:56.266Z,92.81
2017-11-27T00:40:23.992Z,92.78
2017-11-27T00:42:51.616Z,92.60
2017-11-27T00:45:19.243Z,92.02
2017-11-27T00:47:46.969Z,91.76
2017-11-27T00:50:14.580Z,91.57
2017-11-27T00:52:42.188Z,91.53
2017-11-27T00:55:09.906Z,91.15
2017-11-27T00:57:37.573Z,91.16
2017-11-27T01:00:05.292Z,91.08
2017-11-27T01:02:33.090Z,90.99
2017-11-27T01:05:00.706Z,90.88
2017-11-27T01:07:28.381Z,90.86
2017-11-27T01:09:56.084Z,90.71
2017-11-27T01:12:23.761Z,90.65
2017-11-27T01:14:51.381Z,90.37
2017-11-27T01:17:19.040Z,90.03
2017-11-27T01:19:46.652Z,89.66
2017-11-27T01:22:14.325Z,89.32
2017-11-27T01:24:41.984Z,89.41
2017-11-27T01:27:09.599Z,89.05
2017-11-27T01:29:37.204Z,88.52
2017-11-27T01:32:04.864Z,88.70
2017-11-27T01:34:32.588Z,88.49
2017-11-27T01:37:02.294Z,88.60
2017-11-27T01:39:30.037Z,88.48
2017-11-27T01:41:57.709Z,88.24
2017-11-27T01:44:25.393Z,87.78
2017-11-27T01:46:53.060Z,87.51
2017-11-27T01:49:20.761Z,87.50
2017-11-27T01:51:48.540Z,87.42
2017-11-27T01:54:16.318Z,87.35
2017-11-27T01:56:43.952Z,87.22
2017-11-27T01:59:11.632Z,87.00
2017-11-27T02:01:39.395Z,86.95
2017-11-27T02:04:07.042Z,86.87
2017-11-27T02:06:34.749Z,86.83
2017-11-27T02:09:02.489Z,86.74
2017-11-27T02:11:30.157Z,86.49
2017-11-27T02:13:57.784Z,86.52
2017-11-27T02:16:25.444Z,86.70
2017-11-27T02:18:53.059Z,86.66
2017-11-27T02:21:20.732Z,86.37
2017-11-27T02:23:48.424Z,86.63
2017-11-27T02:26:16.110Z,86.72
2017-11-27T02:28:43.785Z,86.49
2017-11-27T02:31:11.585Z,86.40
2017-11-27T02:33:39.187Z,86.39
2017-11-27T02:36:06.806Z,86.16
2017-11-27T02:38:34.457Z,85.99
2017-11-27T02:41:02.948Z,86.06
2017-11-27T02:43:30.573Z,85.96
2017-11-27T02:45:58.228Z,86.39
2017-11-27T02:48:25.843Z,86.41
2017-11-27T02:50:53.466Z,85.92
2017-11-27T02:53:21.133Z,85.92
2017-11-27T02:55:48.814Z,85.75
2017-11-27T02:58:16.432Z,85.53
2017-11-27T03:00:44.126Z,85.54
2017-11-27T03:03:11.813Z,85.48
2017-11-27T03:05:39.435Z,85.52
2017-11-27T03:08:07.152Z,85.37
2017-11-27T03:10:34.813Z,85.45
2017-11-27T03:13:02.467Z,85.46
2017-11-27T03:15:30.120Z,85.36
2017-11-27T03:17:57.728Z,85.51
2017-11-27T03:20:25.412Z,85.36
2017-11-27T03:22:53.072Z,85.33
2017-11-27T03:25:20.692Z,85.28
2017-11-27T03:27:48.424Z,85.08
2017-11-27T03:30:16.147Z,84.97
2017-11-27T03:32:43.808Z,84.50
2017-11-27T03:35:11.485Z,84.63
2017-11-27T03:37:39.213Z,84.47
2017-11-27T03:40:06.889Z,84.78
2017-11-27T03:42:34.565Z,84.31
2017-11-27T03:45:02.230Z,84.50
2017-11-27T03:47:29.901Z,84.26
2017-11-27T03:49:57.573Z,84.06
2017-11-27T03:52:25.235Z,84.03
2017-11-27T03:54:52.841Z,83.90
2017-11-27T03:57:20.447Z,83.87
2017-11-27T03:59:48.192Z,83.89
2017-11-27T04:02:16.096Z,83.98
2017-11-27T04:04:43.716Z,83.79
2017-11-27T04:07:11.371Z,83.78
2017-11-27T04:09:38.996Z,83.76
2017-11-27T04:12:06.689Z,83.55
2017-11-27T04:14:34.356Z,83.32
2017-11-27T04:17:02.131Z,83.60
2017-11-27T04:19:29.761Z,83.49
2017-11-27T04:21:57.432Z,83.56
2017-11-27T04:24:25.052Z,83.62
2017-11-27T04:26:52.673Z,83.73
2017-11-27T04:29:20.397Z,83.62
2017-11-27T04:31:48.025Z,83.62
2017-11-27T04:34:15.697Z,83.52
2017-11-27T04:36:43.376Z,83.52
2017-11-27T04:39:11.062Z,83.71
2017-11-27T04:41:38.753Z,83.95
2017-11-27T04:44:06.420Z,84.11
2017-11-27T04:46:34.044Z,84.23
2017-11-27T04:49:01.733Z,84.49
2017-11-27T04:51:29.400Z,84.67
2017-11-27T04:53:57.020Z,84.82
2017-11-27T04:56:24.657Z,84.80
2017-11-27T04:58:52.324Z,84.89
2017-11-27T05:01:20.010Z,85.06
2017-11-27T05:03:47.626Z,85.16
2017-11-27T05:06:15.349Z,85.17
2017-11-27T05:08:42.963Z,84.66
2017-11-27T05:11:10.635Z,84.66
2017-11-27T05:13:38.376Z,84.87
2017-11-27T05:16:06.064Z,85.01
2017-11-27T05:18:33.672Z,85.28
2017-11-27T05:21:01.408Z,85.06
2017-11-27T05:23:29.027Z,84.97
2017-11-27T05:25:56.696Z,85.11
2017-11-27T05:28:24.353Z,85.04
2017-11-27T05:30:51.970Z,84.96
2017-11-27T05:33:19.585Z,84.91
2017-11-27T05:35:47.257Z,84.68
2017-11-27T05:38:14.876Z,84.88
2017-11-27T05:40:42.484Z,84.88
2017-11-27T05:43:10.152Z,84.71
2017-11-27T05:45:37.832Z,84.72
2017-11-27T05:48:05.447Z,84.64
2017-11-27T05:50:33.131Z,84.87
2017-11-27T05:53:00.815Z,84.29
2017-11-27T05:55:28.425Z,84.84
2017-11-27T05:57:56.157Z,85.08
2017-11-27T06:00:23.873Z,85.21
2017-11-27T06:02:51.494Z,85.07
2017-11-27T06:05:19.152Z,85.32
2017-11-27T06:07:46.764Z,85.91
2017-11-27T06:10:14.437Z,85.96
2017-11-27T06:12:42.120Z,86.18
2017-11-27T06:15:09.782Z,86.54
2017-11-27T06:17:37.461Z,86.93
2017-11-27T06:20:05.124Z,87.11
2017-11-27T06:22:32.796Z,87.40
2017-11-27T06:25:00.413Z,87.62
2017-11-27T06:27:28.072Z,87.71
2017-11-27T06:29:55.750Z,87.66
2017-11-27T06:32:23.363Z,87.64
2017-11-27T06:34:51.031Z,87.70
2017-11-27T06:37:18.699Z,87.95
2017-11-27T06:39:46.312Z,87.77
2017-11-27T06:42:13.977Z,87.48
2017-11-27T06:44:41.600Z,88.00
2017-11-27T06:47:09.272Z,87.90
2017-11-27T06:49:36.928Z,88.62
2017-11-27T06:52:04.600Z,88.54
2017-11-27T06:54:32.270Z,88.27
2017-11-27T06:56:59.928Z,88.18
2017-11-27T06:59:27.594Z,88.06
2017-11-27T07:01:55.200Z,87.56
2017-11-27T07:04:22.936Z,87.46
2017-11-27T07:06:50.548Z,87.32
2017-11-27T07:09:18.168Z,87.15
2017-11-27T07:11:45.844Z,86.35
2017-11-27T07:14:13.456Z,86.60
2017-11-27T07:16:41.122Z,86.41
2017-11-27T07:19:08.836Z,85.43
2017-11-27T07:21:36.517Z,85.61
2017-11-27T07:24:04.183Z,85.68
2017-11-27T07:26:31.940Z,84.88
2017-11-27T07:28:59.613Z,84.93
2017-11-27T07:31:27.284Z,85.36
2017-11-27T07:33:55.082Z,85.10
2017-11-27T07:36:22.756Z,85.40
2017-11-27T07:38:56.073Z,85.06
2017-11-27T07:41:23.754Z,84.73
2017-11-27T07:43:51.449Z,85.26
2017-11-27T07:46:19.180Z,85.16
2017-11-27T07:48:46.851Z,85.25
2017-11-27T07:51:14.528Z,85.38
2017-11-27T07:53:42.257Z,85.67
2017-11-27T07:56:09.944Z,86.07
2017-11-27T07:58:38.005Z,86.02
2017-11-27T08:01:05.753Z,85.98
2017-11-27T08:03:33.469Z,85.54
2017-11-27T08:06:01.140Z,85.79
2017-11-27T08:08:28.896Z,85.64
2017-11-27T08:10:56.568Z,85.62
2017-11-27T08:13:24.250Z,85.47
2017-11-27T08:15:52.002Z,85.17
2017-11-27T08:18:19.732Z,84.94
2017-11-27T08:20:47.449Z,84.83
2017-11-27T08:23:15.177Z,84.36
2017-11-27T08:25:42.900Z,83.81
2017-11-27T08:28:10.589Z,83.08
2017-11-27T08:30:38.345Z,82.84
2017-11-27T08:33:06.023Z,83.27
2017-11-27T08:35:33.636Z,82.46
2017-11-27T08:38:01.297Z,81.87
2017-11-27T08:40:28.972Z,81.51
2017-11-27T08:42:56.577Z,81.08
2017-11-27T08:45:24.253Z,81.25
2017-11-27T08:47:51.861Z,81.06
2017-11-27T08:50:19.456Z,81.37
2017-11-27T08:52:47.112Z,81.00
2017-11-27T08:55:14.715Z,80.40
2017-11-27T08:57:42.345Z,80.21
2017-11-27T09:00:10.065Z,79.95
2017-11-27T09:02:37.732Z,79.46
2017-11-27T09:05:05.340Z,80.25
2017-11-27T09:07:33.015Z,79.57
2017-11-27T09:10:00.621Z,79.21
2017-11-27T09:12:28.292Z,78.60
2017-11-27T09:14:55.985Z,78.99
2017-11-27T09:17:23.604Z,79.88
2017-11-27T09:19:51.265Z,79.08
2017-11-27T09:22:18.951Z,79.51
2017-11-27T09:24:46.630Z,79.64
2017-11-27T09:27:14.249Z,79.24
2017-11-27T09:29:41.909Z,79.14
2017-11-27T09:32:09.620Z,77.86
2017-11-27T09:34:37.220Z,79.75
2017-11-27T09:37:04.881Z,80.24
2017-11-27T09:39:32.636Z,79.66
2017-11-27T09:42:00.239Z,80.77
2017-11-27T09:44:27.918Z,80.27
2017-11-27T09:46:55.589Z,80.36
2017-11-27T09:49:23.192Z,80.52
2017-11-27T09:51:50.836Z,80.98
2017-11-27T09:54:18.446Z,80.42
2017-11-27T09:56:46.044Z,80.33
2017-11-27T09:59:13.690Z,80.69
2017-11-27T10:01:41.357Z,81.33
2017-11-27T10:04:09.044Z,80.41
2017-11-27T10:06:36.773Z,78.91
2017-11-27T10:09:04.492Z,79.04
2017-11-27T10:11:32.096Z,78.73
2017-11-27T10:13:59.833Z,79.34
2017-11-27T10:16:27.470Z,79.15
2017-11-27T10:18:55.072Z,78.56
2017-11-27T10:21:22.772Z,79.47
2017-11-27T10:23:50.379Z,79.01
2017-11-27T10:26:18.029Z,78.88
2017-11-27T10:28:45.672Z,78.29
2017-11-27T10:31:13.275Z,78.46
2017-11-27T10:33:40.873Z,77.91
2017-11-27T10:36:08.539Z,77.98
2017-11-27T10:38:36.136Z,77.87
2017-11-27T10:41:03.740Z,78.74
2017-11-27T10:43:31.456Z,79.42
2017-11-27T10:45:59.124Z,78.88
2017-11-27T10:48:26.781Z,79.12
2017-11-27T10:50:54.497Z,80.22
2017-11-27T10:53:22.174Z,79.47
2017-11-27T10:55:49.789Z,80.90
2017-11-27T10:58:17.454Z,81.71
2017-11-27T11:03:41.133Z,82.20
2017-11-27T11:06:08.808Z,83.29
2017-11-27T11:08:36.472Z,83.33
2017-11-27T11:11:04.143Z,83.86
2017-11-27T11:13:31.744Z,83.58
2017-11-27T11:15:59.432Z,83.59
2017-11-27T11:18:27.096Z,83.68
2017-11-27T11:20:54.710Z,83.57
2017-11-27T11:23:22.324Z,83.43
2017-11-27T11:25:49.975Z,82.59
2017-11-27T11:28:17.576Z,83.00
2017-11-27T11:30:45.177Z,82.88
2017-11-27T11:33:12.827Z,83.91
2017-11-27T11:35:40.429Z,83.40
2017-11-27T11:38:08.024Z,82.84
2017-11-27T11:40:35.672Z,83.23
2017-11-27T11:43:03.288Z,83.60
2017-11-27T11:45:30.885Z,83.75
2017-11-27T11:47:58.523Z,83.40
2017-11-27T11:50:26.120Z,84.05
2017-11-27T11:52:53.808Z,83.88
2017-11-27T11:55:21.493Z,84.25
2017-11-27T11:58:06.707Z,84.21
2017-11-27T12:00:54.818Z,83.30
2017-11-27T12:03:40.376Z,84.40
2017-11-27T12:06:08.146Z,84.89
2017-11-27T12:08:35.780Z,84.96
2017-11-27T12:11:03.489Z,85.57
2017-11-27T12:13:31.160Z,85.16
2017-11-27T12:15:58.857Z,85.05
2017-11-27T12:18:44.203Z,85.50
2017-11-27T12:21:29.423Z,85.63
2017-11-27T12:24:14.597Z,85.20
2017-11-27T12:26:42.252Z,85.51
2017-11-27T12:29:09.879Z,85.87
2017-11-27T12:31:37.647Z,85.80
2017-11-27T12:34:05.291Z,85.39
2017-11-27T12:36:32.961Z,85.28
2017-11-27T12:39:00.669Z,85.67
2017-11-27T12:41:28.276Z,86.43
2017-11-27T12:43:55.937Z,86.54
2017-11-27T12:46:23.623Z,86.19
2017-11-27T12:48:51.240Z,86.44
2017-11-27T12:51:18.923Z,86.14
2017-11-27T12:53:46.582Z,85.58
2017-11-27T12:56:14.205Z,85.64
2017-11-27T12:58:41.821Z,85.58
2017-11-27T13:01:09.602Z,86.32
2017-11-27T13:03:37.276Z,85.94
2017-11-27T13:06:04.906Z,85.68
2017-11-27T13:08:32.623Z,86.14
2017-11-27T13:11:00.310Z,86.33
2017-11-27T13:13:27.922Z,86.26
2017-11-27T13:15:55.687Z,86.75
2017-11-27T13:18:23.344Z,86.68
2017-11-27T13:20:51.005Z,87.12
2017-11-27T13:23:18.660Z,87.17
2017-11-27T13:25:46.266Z,87.45
2017-11-27T13:28:13.881Z,87.64
2017-11-27T13:30:41.536Z,87.71
2017-11-27T13:33:09.150Z,87.47
2017-11-27T13:35:36.814Z,87.28
2017-11-27T13:38:04.471Z,87.76
2017-11-27T13:40:32.141Z,88.09
2017-11-27T13:42:59.739Z,88.12
2017-11-27T13:45:27.490Z,87.94
2017-11-27T13:47:55.118Z,88.09
2017-11-27T13:50:22.793Z,87.98
2017-11-27T13:52:50.484Z,87.63
2017-11-27T13:55:18.102Z,87.20
2017-11-27T13:57:45.771Z,87.60
2017-11-27T14:00:13.537Z,87.08
2017-11-27T14:02:41.157Z,86.83
2017-11-27T14:05:08.833Z,87.09
2017-11-27T14:07:36.482Z,87.44
2017-11-27T14:10:04.114Z,87.60
2017-11-27T14:12:31.726Z,87.64
2017-11-27T14:14:59.373Z,87.95
2017-11-27T14:17:27.038Z,86.86
2017-11-27T14:19:54.720Z,87.43
2017-11-27T14:22:22.451Z,87.32
2017-11-27T14:24:50.125Z,87.17
2017-11-27T14:27:17.809Z,87.43
2017-11-27T14:29:45.520Z,87.67
2017-11-27T14:32:13.142Z,87.69
2017-11-27T14:34:40.805Z,86.49
2017-11-27T14:37:08.522Z,86.62
2017-11-27T14:39:36.144Z,86.28
2017-11-27T14:42:03.821Z,86.58
2017-11-27T14:44:31.548Z,87.20
2017-11-27T14:46:59.189Z,87.37
2017-11-27T14:49:26.797Z,87.64
2017-11-27T14:51:54.448Z,87.46
2017-11-27T14:54:22.080Z,87.98
2017-11-27T14:56:49.796Z,88.08
2017-11-27T14:59:17.536Z,87.53
2017-11-27T15:01:45.165Z,87.75
2017-11-27T15:04:12.857Z,87.87
2017-11-27T15:06:40.529Z,87.81
2017-11-27T15:09:08.205Z,87.59
2017-11-27T15:11:35.835Z,87.06
2017-11-27T15:14:03.509Z,87.72
2017-11-27T15:16:31.203Z,87.24
2017-11-27T15:18:58.916Z,87.54
2017-11-27T15:21:26.626Z,87.66
2017-11-27T15:23:54.272Z,87.92
2017-11-27T15:26:21.956Z,88.00
2017-11-27T15:28:49.646Z,88.02
2017-11-27T15:31:17.356Z,87.91
2017-11-27T15:33:45.078Z,88.25
2017-11-27T15:36:12.796Z,88.11
2017-11-27T15:38:40.558Z,87.87
2017-11-27T15:41:08.286Z,87.32
2017-11-27T15:43:36.033Z,86.65
2017-11-27T15:46:03.713Z,86.92
2017-11-27T15:48:31.474Z,87.29
2017-11-27T15:50:59.266Z,87.58
2017-11-27T15:53:27.030Z,87.30
2017-11-27T15:55:54.698Z,87.81
2017-11-27T15:58:22.441Z,87.97
2017-11-27T16:00:50.204Z,88.14
2017-11-27T16:03:17.877Z,88.02
2017-11-27T16:05:45.560Z,87.79
2017-11-27T16:08:13.168Z,87.73
2017-11-27T16:10:40.785Z,87.87
2017-11-27T16:13:08.539Z,87.98
2017-11-27T16:15:36.221Z,87.91
2017-11-27T16:18:03.924Z,87.67
2017-11-27T16:20:31.601Z,88.00
2017-11-27T16:22:59.237Z,87.93
2017-11-27T16:25:26.868Z,87.77
2017-11-27T16:27:54.548Z,87.77
2017-11-27T16:30:22.315Z,87.59
2017-11-27T16:32:50.008Z,88.14
2017-11-27T16:35:17.684Z,88.36
2017-11-27T16:37:45.337Z,88.47
2017-11-27T16:40:13.017Z,88.46
2017-11-27T16:42:40.680Z,88.29
2017-11-27T16:45:08.280Z,88.33
2017-11-27T16:47:35.946Z,88.44
2017-11-27T16:50:03.687Z,88.25
2017-11-27T16:52:31.370Z,88.33
2017-11-27T16:54:58.999Z,87.63
2017-11-27T16:57:26.722Z,88.22
2017-11-27T16:59:54.424Z,88.07
2017-11-27T17:02:22.064Z,88.14
2017-11-27T17:04:49.753Z,87.94
2017-11-27T17:07:18.389Z,88.16
2017-11-27T17:09:46.013Z,87.69
2017-11-27T17:12:13.761Z,87.92
2017-11-27T17:14:41.432Z,87.90
2017-11-27T17:17:09.157Z,87.65
2017-11-27T17:19:36.825Z,87.80
2017-11-27T17:22:04.508Z,87.80
2017-11-27T17:24:32.201Z,88.02
2017-11-27T17:26:59.927Z,88.29
2017-11-27T17:29:27.669Z,88.18
2017-11-27T17:31:55.405Z,87.98
2017-11-27T17:34:23.177Z,87.88
2017-11-27T17:36:50.852Z,87.86
2017-11-27T17:39:18.537Z,88.06
2017-11-27T17:41:46.340Z,88.04
2017-11-27T17:44:13.989Z,87.88
2017-11-27T17:46:41.612Z,88.12
2017-11-27T17:49:09.313Z,88.00
2017-11-27T17:51:37.108Z,88.13
2017-11-27T17:54:04.740Z,88.15
2017-11-27T17:56:32.484Z,88.46
2017-11-27T17:59:00.146Z,88.53
2017-11-27T18:01:27.820Z,88.71
2017-11-27T18:03:55.489Z,88.51
2017-11-27T18:06:23.174Z,88.71
2017-11-27T18:08:50.788Z,88.78
2017-11-27T18:11:18.449Z,88.92
2017-11-27T18:13:46.134Z,89.18
2017-11-27T18:16:13.835Z,89.12
2017-11-27T18:18:41.606Z,89.16
2017-11-27T18:21:09.333Z,89.33
2017-11-27T18:23:37.139Z,89.25
2017-11-27T18:26:04.810Z,89.10
2017-11-27T18:28:32.543Z,89.36
2017-11-27T18:31:00.176Z,89.38
2017-11-27T18:33:27.852Z,89.48
2017-11-27T18:35:55.529Z,89.67
2017-11-27T18:38:23.224Z,89.57
2017-11-27T18:40:50.949Z,89.57
2017-11-27T18:43:18.693Z,89.65
2017-11-27T18:45:46.370Z,89.66
2017-11-27T18:48:14.117Z,89.74
2017-11-27T18:50:41.745Z,89.80
2017-11-27T18:53:09.373Z,90.04
2017-11-27T18:55:37.052Z,90.06
2017-11-27T18:58:04.693Z,89.90
2017-11-27T19:00:32.351Z,90.05
2017-11-27T19:03:00.117Z,90.34
2017-11-27T19:05:27.801Z,90.25
2017-11-27T19:07:55.433Z,90.32
2017-11-27T19:10:23.124Z,90.13
2017-11-27T19:12:50.841Z,89.87
2017-11-27T19:15:18.499Z,89.94
2017-11-27T19:17:46.200Z,89.95
2017-11-27T19:20:13.821Z,90.00
2017-11-27T19:22:41.459Z,90.09
2017-11-27T19:25:09.144Z,90.46
2017-11-27T19:27:36.842Z,90.76
2017-11-27T19:30:04.512Z,90.71
2017-11-27T19:32:33.241Z,90.78
2017-11-27T19:35:00.892Z,90.47
2017-11-27T19:37:30.321Z,90.31
2017-11-27T19:39:58.058Z,90.56
2017-11-27T19:42:25.677Z,90.61
2017-11-27T19:44:53.294Z,90.48
2017-11-27T19:47:21.029Z,90.36
2017-11-27T19:49:48.721Z,90.22
2017-11-27T19:52:16.385Z,90.00
2017-11-27T19:54:44.101Z,89.93
2017-11-27T19:57:11.744Z,89.88
2017-11-27T19:59:39.369Z,89.66
2017-11-27T20:02:07.081Z,89.68
2017-11-27T20:04:34.749Z,89.61
2017-11-27T20:07:02.394Z,89.60
2017-11-27T20:09:30.096Z,89.73
2017-11-27T20:11:57.869Z,89.90
2017-11-27T20:14:25.569Z,90.01
2017-11-27T20:16:53.442Z,89.73
2017-11-27T20:19:21.132Z,89.62
2017-11-27T20:21:48.936Z,89.49
2017-11-27T20:24:16.785Z,89.56
2017-11-27T20:26:44.517Z,89.59
2017-11-27T20:29:12.214Z,89.41
2017-11-27T20:31:40.036Z,89.20
2017-11-27T20:34:07.679Z,89.02
2017-11-27T20:36:35.360Z,89.34
2017-11-27T20:39:03.103Z,89.42
2017-11-27T20:41:30.845Z,89.66
2017-11-27T20:43:58.584Z,89.93
2017-11-27T20:46:26.349Z,89.49
2017-11-27T20:48:54.054Z,89.53
2017-11-27T20:51:21.781Z,89.39
2017-11-27T20:53:49.581Z,89.34
2017-11-27T20:56:17.220Z,89.33
2017-11-27T20:58:44.980Z,89.37
2017-11-27T21:01:12.703Z,89.33
2017-11-27T21:03:40.340Z,89.35
2017-11-27T21:06:07.992Z,89.10
2017-11-27T21:08:35.694Z,88.72
2017-11-27T21:11:03.316Z,89.07
2017-11-27T21:13:30.936Z,89.21
2017-11-27T21:15:58.672Z,88.93
2017-11-27T21:18:26.353Z,88.85
2017-11-27T21:20:53.990Z,89.06
2017-11-27T21:23:21.678Z,89.22
2017-11-27T21:25:49.356Z,88.95
2017-11-27T21:28:16.985Z,88.96
2017-11-27T21:30:44.706Z,89.01
2017-11-27T21:33:12.348Z,89.21
2017-11-27T21:35:40.025Z,89.30
2017-11-27T21:38:07.704Z,89.59
2017-11-27T21:40:35.346Z,89.65
2017-11-27T21:43:03.037Z,89.82
2017-11-27T21:45:30.782Z,89.89
2017-11-27T21:47:58.409Z,89.87
2017-11-27T21:50:26.020Z,89.90
2017-11-27T21:52:53.684Z,89.94
2017-11-27T21:55:21.388Z,89.91
2017-11-27T21:57:49.078Z,89.98
2017-11-27T22:00:16.804Z,90.11
2017-11-27T22:02:44.416Z,90.04
2017-11-27T22:05:12.076Z,90.07
2017-11-27T22:07:39.793Z,90.17
2017-11-27T22:10:07.502Z,90.31
2017-11-27T22:12:35.120Z,90.27
2017-11-27T22:15:02.807Z,90.28
2017-11-27T22:17:30.443Z,90.40
2017-11-27T22:19:58.078Z,90.60
2017-11-27T22:22:25.825Z,90.61
2017-11-27T22:24:53.484Z,90.61
2017-11-27T22:27:21.121Z,90.53
2017-11-27T22:29:48.804Z,90.61
2017-11-27T22:32:16.582Z,90.62
2017-11-27T22:34:44.220Z,90.57
2017-11-27T22:37:11.957Z,90.66
2017-11-27T22:39:39.589Z,90.63
2017-11-27T22:42:07.205Z,90.59
2017-11-27T22:44:34.907Z,90.52
2017-11-27T22:47:02.573Z,90.50
2017-11-27T22:49:30.206Z,90.59
2017-11-27T22:51:57.973Z,90.61
2017-11-27T22:54:25.612Z,90.57
2017-11-27T22:56:53.354Z,90.49
2017-11-27T22:59:21.096Z,90.81
2017-11-27T23:01:48.750Z,90.93
2017-11-27T23:04:16.382Z,90.87
2017-11-27T23:06:43.983Z,90.82
2017-11-27T23:09:11.618Z,90.79
2017-11-27T23:11:39.191Z,90.74
2017-11-27T23:14:06.795Z,90.52
2017-11-27T23:16:34.339Z,90.35
2017-11-27T23:19:01.948Z,90.44
2017-11-27T23:21:29.599Z,90.40
2017-11-27T23:23:57.156Z,90.18
2017-11-27T23:26:24.739Z,90.31
2017-11-27T23:28:52.366Z,90.32
2017-11-27T23:31:19.925Z,90.25
2017-11-27T23:33:47.481Z,90.22
2017-11-27T23:36:15.094Z,90.35
2017-11-27T23:38:42.648Z,90.53
2017-11-27T23:41:10.275Z,90.39
2017-11-27T23:43:37.847Z,90.34
2017-11-27T23:46:05.419Z,90.46
2017-11-27T23:48:32.991Z,90.32
2017-11-27T23:51:00.603Z,90.39
2017-11-27T23:53:28.156Z,90.19
2017-11-27T23:55:55.727Z,90.34
2017-11-27T23:58:23.287Z,90.28
